首页
METAR-TAF:

METAR-TAF

机场 :

奥古斯塔, 喬治亞, 美国

纬度: 33-21-52N, 经度: 081-57-48W, 海拔: 44米

当前天气观测

该预报发布于36分钟前的03:53 UTC
风速6节,风向北转西北
温度 14°C
湿度 67%
气压 1017 hPa
能見度: 16.1公里
天空无云

METAR: KAGS 170353Z AUTO 33006KT 10SM CLR 14/08 A3004 RMK AO2 SLP172 T01440078 $

时间: 00:29 (04:29 UTC)

预报

该预报发布于1小时和46分钟前的02:43 UTC
预报有效从17日的 03点(UTC)到 17日的 24点(UTC)
风速7节,风向西北
能見度: 10公里
天空无云
从 17日的 1500点(UTC)
风速9节,风向北转西北
能見度: 10公里
天空无云

TAF: KAGS 170243Z 1703/1724 32007KT P6SM SKC FM171500 33009KT P6SM SKC

超过4000个机场的气象观测和天气预报(METAR&TAF报告)。

可查询的气象台以黄色和红色小点在地图上表示。

将鼠标移到小点上方,可查看气象台名称。

然后点击查看天气观测和预报。

如需切换地图:点击带黑十字的绿色按钮放大地图;点击带横线的绿色按钮缩小地图;或者点击绿色箭头查看邻近地区的地图。


METAR-TAF: